sensor_id;sensor_type;location;lat;lon;timestamp;pressure;altitude;pressure_sealevel;temperature;humidity
32642;BME280;19323;56.072;9.698;2023-03-02T00:00:00;102223.75;;;25.96;35.32
32642;BME280;19323;56.072;9.698;2023-03-02T00:02:25;102227.28;;;25.97;35.49
32642;BME280;19323;56.072;9.698;2023-03-02T00:04:52;102227.41;;;25.95;35.47
32642;BME280;19323;56.072;9.698;2023-03-02T00:07:20;102221.19;;;25.95;35.61
32642;BME280;19323;56.072;9.698;2023-03-02T00:09:46;102222.91;;;25.96;35.63
32642;BME280;19323;56.072;9.698;2023-03-02T00:12:11;102221.19;;;25.95;35.61
32642;BME280;19323;56.072;9.698;2023-03-02T00:14:37;102224.84;;;25.94;35.61
32642;BME280;19323;56.072;9.698;2023-03-02T00:17:02;102225.69;;;25.94;35.29
32642;BME280;19323;56.072;9.698;2023-03-02T00:19:28;102227.53;;;25.94;35.56
32642;BME280;19323;56.072;9.698;2023-03-02T00:21:53;102218.59;;;25.93;35.21
32642;BME280;19323;56.072;9.698;2023-03-02T00:24:18;102214.22;;;25.92;35.56
32642;BME280;19323;56.072;9.698;2023-03-02T00:26:44;102209.72;;;25.93;35.47
32642;BME280;19323;56.072;9.698;2023-03-02T00:29:09;102212.41;;;25.93;35.54
32642;BME280;19323;56.072;9.698;2023-03-02T00:31:34;102218.75;;;25.92;35.58
32642;BME280;19323;56.072;9.698;2023-03-02T00:34:01;102204.50;;;25.91;35.53
32642;BME280;19323;56.072;9.698;2023-03-02T00:36:27;102208.88;;;25.92;35.19
32642;BME280;19323;56.072;9.698;2023-03-02T00:38:52;102210.72;;;25.92;35.36
32642;BME280;19323;56.072;9.698;2023-03-02T00:41:17;102213.50;;;25.90;35.16
32642;BME280;19323;56.072;9.698;2023-03-02T00:43:45;102208.97;;;25.90;35.16
32642;BME280;19323;56.072;9.698;2023-03-02T00:46:11;102205.44;;;25.90;35.47
32642;BME280;19323;56.072;9.698;2023-03-02T00:48:37;102209.97;;;25.89;35.36
32642;BME280;19323;56.072;9.698;2023-03-02T00:51:02;102208.25;;;25.88;35.47
32642;BME280;19323;56.072;9.698;2023-03-02T00:53:28;102210.09;;;25.88;35.26
32642;BME280;19323;56.072;9.698;2023-03-02T00:55:53;102203.00;;;25.87;35.47
32642;BME280;19323;56.072;9.698;2023-03-02T00:58:18;102198.59;;;25.86;35.48
32642;BME280;19323;56.072;9.698;2023-03-02T01:00:45;102209.34;;;25.86;35.47
32642;BME280;19323;56.072;9.698;2023-03-02T01:03:10;102207.63;;;25.85;35.51
32642;BME280;19323;56.072;9.698;2023-03-02T01:05:36;102200.44;;;25.85;35.16
32642;BME280;19323;56.072;9.698;2023-03-02T01:08:01;102204.97;;;25.85;35.31
32642;BME280;19323;56.072;9.698;2023-03-02T01:10:26;102206.66;;;25.86;35.25
32642;BME280;19323;56.072;9.698;2023-03-02T01:12:51;102195.91;;;25.86;35.20
32642;BME280;19323;56.072;9.698;2023-03-02T01:15:16;102192.38;;;25.85;35.26
32642;BME280;19323;56.072;9.698;2023-03-02T01:17:42;102192.38;;;25.85;35.28
32642;BME280;19323;56.072;9.698;2023-03-02T01:20:08;102195.19;;;25.84;35.48
32642;BME280;19323;56.072;9.698;2023-03-02T01:22:33;102200.56;;;25.84;35.44
32642;BME280;19323;56.072;9.698;2023-03-02T01:24:58;102197.13;;;25.82;35.37
32642;BME280;19323;56.072;9.698;2023-03-02T01:27:23;102204.06;;;25.84;35.26
32642;BME280;19323;56.072;9.698;2023-03-02T01:29:49;102197.13;;;25.82;35.16
32642;BME280;19323;56.072;9.698;2023-03-02T01:32:14;102197.28;;;25.80;35.18
32642;BME280;19323;56.072;9.698;2023-03-02T01:34:39;102200.81;;;25.81;35.30
32642;BME280;19323;56.072;9.698;2023-03-02T01:37:05;102202.66;;;25.80;35.28
32642;BME280;19323;56.072;9.698;2023-03-02T01:39:30;102199.09;;;25.80;35.54
32642;BME280;19323;56.072;9.698;2023-03-02T01:41:55;102196.41;;;25.80;35.26
32642;BME280;19323;56.072;9.698;2023-03-02T01:47:01;102196.41;;;25.80;35.27
32642;BME280;19323;56.072;9.698;2023-03-02T01:49:27;102198.13;;;25.81;35.26
32642;BME280;19323;56.072;9.698;2023-03-02T01:51:52;102195.56;;;25.79;35.44
32642;BME280;19323;56.072;9.698;2023-03-02T01:54:18;102191.91;;;25.80;35.38
32642;BME280;19323;56.072;9.698;2023-03-02T01:56:47;102190.19;;;25.79;35.23
32642;BME280;19323;56.072;9.698;2023-03-02T01:59:14;102183.97;;;25.79;35.27
32642;BME280;19323;56.072;9.698;2023-03-02T02:01:42;102190.19;;;25.79;35.50
32642;BME280;19323;56.072;9.698;2023-03-02T02:04:08;102180.31;;;25.80;35.50
32642;BME280;19323;56.072;9.698;2023-03-02T02:06:36;102172.41;;;25.78;35.30
32642;BME280;19323;56.072;9.698;2023-03-02T02:09:02;102179.56;;;25.78;35.19
32642;BME280;19323;56.072;9.698;2023-03-02T02:11:28;102172.53;;;25.77;35.31
32642;BME280;19323;56.072;9.698;2023-03-02T02:13:57;102158.16;;;25.66;35.12
32642;BME280;19323;56.072;9.698;2023-03-02T02:16:23;102176.91;;;25.78;35.14
32642;BME280;19323;56.072;9.698;2023-03-02T02:18:48;102170.56;;;25.79;35.51
32642;BME280;19323;56.072;9.698;2023-03-02T02:21:14;102166.16;;;25.78;35.29
32642;BME280;19323;56.072;9.698;2023-03-02T02:23:54;102170.69;;;25.77;35.16
32642;BME280;19323;56.072;9.698;2023-03-02T02:26:25;102169.00;;;25.76;35.09
32642;BME280;19323;56.072;9.698;2023-03-02T02:28:54;102167.41;;;25.74;35.33
32642;BME280;19323;56.072;9.698;2023-03-02T02:31:29;102162.06;;;25.74;35.37
32642;BME280;19323;56.072;9.698;2023-03-02T02:33:59;102159.38;;;25.74;35.30
32642;BME280;19323;56.072;9.698;2023-03-02T02:36:28;102148.63;;;25.74;35.40
32642;BME280;19323;56.072;9.698;2023-03-02T02:38:57;102150.44;;;25.73;35.18
32642;BME280;19323;56.072;9.698;2023-03-02T02:41:25;102144.22;;;25.73;35.29
32642;BME280;19323;56.072;9.698;2023-03-02T02:43:52;102140.81;;;25.70;35.34
32642;BME280;19323;56.072;9.698;2023-03-02T02:46:17;102138.13;;;25.70;35.17
32642;BME280;19323;56.072;9.698;2023-03-02T02:48:43;102138.13;;;25.70;35.24
32642;BME280;19323;56.072;9.698;2023-03-02T02:51:08;102139.13;;;25.69;35.21
32642;BME280;19323;56.072;9.698;2023-03-02T02:53:40;102142.66;;;25.70;35.17
32642;BME280;19323;56.072;9.698;2023-03-02T02:56:07;102136.44;;;25.69;35.43
32642;BME280;19323;56.072;9.698;2023-03-02T02:58:39;102136.44;;;25.69;35.45
32642;BME280;19323;56.072;9.698;2023-03-02T03:01:05;102131.06;;;25.69;35.24
32642;BME280;19323;56.072;9.698;2023-03-02T03:03:32;102128.50;;;25.68;35.25
32642;BME280;19323;56.072;9.698;2023-03-02T03:05:59;102125.81;;;25.68;35.22
32642;BME280;19323;56.072;9.698;2023-03-02T03:11:05;102118.63;;;25.68;35.17
32642;BME280;19323;56.072;9.698;2023-03-02T03:13:30;102116.94;;;25.67;35.18
32642;BME280;19323;56.072;9.698;2023-03-02T03:15:55;102122.31;;;25.67;35.54
32642;BME280;19323;56.072;9.698;2023-03-02T03:18:21;102115.22;;;25.66;35.37
32642;BME280;19323;56.072;9.698;2023-03-02T03:20:46;102121.56;;;25.65;35.14
32642;BME280;19323;56.072;9.698;2023-03-02T03:23:12;102115.22;;;25.66;35.60
32642;BME280;19323;56.072;9.698;2023-03-02T03:25:37;102112.53;;;25.66;35.25
32642;BME280;19323;56.072;9.698;2023-03-02T03:28:02;102127.78;;;25.66;35.68
32642;BME280;19323;56.072;9.698;2023-03-02T03:30:28;102118.88;;;25.65;35.27
32642;BME280;19323;56.072;9.698;2023-03-02T03:32:53;102116.19;;;25.65;35.36
32642;BME280;19323;56.072;9.698;2023-03-02T03:35:18;102111.81;;;25.64;35.58
32642;BME280;19323;56.072;9.698;2023-03-02T03:37:43;102119.00;;;25.64;35.42
32642;BME280;19323;56.072;9.698;2023-03-02T03:40:09;102119.00;;;25.64;35.19
32642;BME280;19323;56.072;9.698;2023-03-02T03:42:35;102121.81;;;25.62;35.30
32642;BME280;19323;56.072;9.698;2023-03-02T03:45:00;102120.84;;;25.63;35.38
32642;BME280;19323;56.072;9.698;2023-03-02T03:47:26;102110.97;;;25.64;35.58
32642;BME280;19323;56.072;9.698;2023-03-02T03:49:51;102110.13;;;25.63;35.31
32642;BME280;19323;56.072;9.698;2023-03-02T03:52:16;102111.94;;;25.63;35.32
32642;BME280;19323;56.072;9.698;2023-03-02T03:54:41;102110.22;;;25.62;35.56
32642;BME280;19323;56.072;9.698;2023-03-02T03:57:06;102104.97;;;25.60;35.48
32642;BME280;19323;56.072;9.698;2023-03-02T03:59:31;102108.53;;;25.61;35.45
32642;BME280;19323;56.072;9.698;2023-03-02T04:01:58;102113.03;;;25.60;35.23
32642;BME280;19323;56.072;9.698;2023-03-02T04:04:28;102112.19;;;25.60;35.36
32642;BME280;19323;56.072;9.698;2023-03-02T04:06:54;102114.03;;;25.59;35.30
32642;BME280;19323;56.072;9.698;2023-03-02T04:09:19;102109.66;;;25.58;35.35
32642;BME280;19323;56.072;9.698;2023-03-02T04:11:45;102116.81;;;25.58;35.37
32642;BME280;19323;56.072;9.698;2023-03-02T04:14:11;102115.13;;;25.57;35.31
32642;BME280;19323;56.072;9.698;2023-03-02T04:16:37;102112.44;;;25.57;35.47
32642;BME280;19323;56.072;9.698;2023-03-02T04:19:02;102115.13;;;25.57;35.36
32642;BME280;19323;56.072;9.698;2023-03-02T04:21:33;102111.59;;;25.56;35.38
32642;BME280;19323;56.072;9.698;2023-03-02T04:23:58;102110.63;;;25.57;35.39
32642;BME280;19323;56.072;9.698;2023-03-02T04:26:23;102113.41;;;25.56;35.23
32642;BME280;19323;56.072;9.698;2023-03-02T04:28:50;102108.91;;;25.56;35.50
32642;BME280;19323;56.072;9.698;2023-03-02T04:31:16;102108.03;;;25.56;35.27
32642;BME280;19323;56.072;9.698;2023-03-02T04:33:41;102104.53;;;25.55;35.50
32642;BME280;19323;56.072;9.698;2023-03-02T04:36:06;102104.53;;;25.55;35.34
32642;BME280;19323;56.072;9.698;2023-03-02T04:38:31;102103.78;;;25.53;35.40
32642;BME280;19323;56.072;9.698;2023-03-02T04:40:57;102106.47;;;25.53;35.51
32642;BME280;19323;56.072;9.698;2023-03-02T04:43:23;102104.63;;;25.54;35.50
32642;BME280;19323;56.072;9.698;2023-03-02T04:45:49;102108.31;;;25.53;35.51
32642;BME280;19323;56.072;9.698;2023-03-02T04:48:14;102109.16;;;25.53;35.66
32642;BME280;19323;56.072;9.698;2023-03-02T04:50:39;102102.09;;;25.52;35.59
32642;BME280;19323;56.072;9.698;2023-03-02T04:53:05;102098.53;;;25.52;35.53
32642;BME280;19323;56.072;9.698;2023-03-02T04:55:31;102097.59;;;25.53;35.58
32642;BME280;19323;56.072;9.698;2023-03-02T04:57:56;102091.38;;;25.52;35.58
32642;BME280;19323;56.072;9.698;2023-03-02T05:00:21;102088.81;;;25.51;35.64
32642;BME280;19323;56.072;9.698;2023-03-02T05:02:47;102086.13;;;25.51;35.71
32642;BME280;19323;56.072;9.698;2023-03-02T05:05:22;102085.41;;;25.48;35.75
32642;BME280;19323;56.072;9.698;2023-03-02T05:07:47;102085.41;;;25.48;35.85
32642;BME280;19323;56.072;9.698;2023-03-02T05:10:13;102084.56;;;25.48;35.86
32642;BME280;19323;56.072;9.698;2023-03-02T05:12:39;102061.19;;;25.27;35.67
32642;BME280;19323;56.072;9.698;2023-03-02T05:15:27;102081.88;;;25.48;36.02
32642;BME280;19323;56.072;9.698;2023-03-02T05:17:53;102079.19;;;25.48;36.03
32642;BME280;19323;56.072;9.698;2023-03-02T05:20:18;102083.81;;;25.46;35.90
32642;BME280;19323;56.072;9.698;2023-03-02T05:22:44;102045.34;;;25.24;35.83
32642;BME280;19323;56.072;9.698;2023-03-02T05:25:09;102075.06;;;25.44;36.18
32642;BME280;19323;56.072;9.698;2023-03-02T05:27:34;102079.41;;;25.45;35.96
32642;BME280;19323;56.072;9.698;2023-03-02T05:30:01;102072.25;;;25.45;35.80
32642;BME280;19323;56.072;9.698;2023-03-02T05:32:26;102075.06;;;25.44;35.98
32642;BME280;19323;56.072;9.698;2023-03-02T05:34:51;102066.00;;;25.45;36.03
32642;BME280;19323;56.072;9.698;2023-03-02T05:37:16;102066.88;;;25.45;36.12
32642;BME280;19323;56.072;9.698;2023-03-02T05:39:42;102067.00;;;25.44;36.07
32642;BME280;19323;56.072;9.698;2023-03-02T05:42:08;102065.28;;;25.43;36.24
32642;BME280;19323;56.072;9.698;2023-03-02T05:44:33;102066.28;;;25.42;36.16
32642;BME280;19323;56.072;9.698;2023-03-02T05:46:58;102066.28;;;25.42;36.13
32642;BME280;19323;56.072;9.698;2023-03-02T05:49:23;102068.97;;;25.42;36.05
32642;BME280;19323;56.072;9.698;2023-03-02T05:51:49;102066.28;;;25.42;36.17
32642;BME280;19323;56.072;9.698;2023-03-02T05:54:14;102061.75;;;25.42;36.04
32642;BME280;19323;56.072;9.698;2023-03-02T05:56:39;102064.59;;;25.41;36.14
32642;BME280;19323;56.072;9.698;2023-03-02T05:59:05;102061.91;;;25.41;36.22
32642;BME280;19323;56.072;9.698;2023-03-02T06:01:30;102064.59;;;25.41;36.18
32642;BME280;19323;56.072;9.698;2023-03-02T06:03:55;102062.75;;;25.41;36.42
32642;BME280;19323;56.072;9.698;2023-03-02T06:06:20;102068.13;;;25.41;36.25
32642;BME280;19323;56.072;9.698;2023-03-02T06:08:45;102061.91;;;25.41;36.34
32642;BME280;19323;56.072;9.698;2023-03-02T06:11:11;102058.22;;;25.42;36.35
32642;BME280;19323;56.072;9.698;2023-03-02T06:13:36;102063.59;;;25.42;36.14
32642;BME280;19323;56.072;9.698;2023-03-02T06:16:02;102066.28;;;25.42;36.32
32642;BME280;19323;56.072;9.698;2023-03-02T06:18:27;102064.44;;;25.42;36.27
32642;BME280;19323;56.072;9.698;2023-03-02T06:20:52;102066.28;;;25.42;36.33
32642;BME280;19323;56.072;9.698;2023-03-02T06:23:18;102068.22;;;25.40;36.28
32642;BME280;19323;56.072;9.698;2023-03-02T06:25:43;102067.28;;;25.41;36.36
32642;BME280;19323;56.072;9.698;2023-03-02T06:28:13;102068.97;;;25.42;36.32
32642;BME280;19323;56.072;9.698;2023-03-02T06:30:38;102066.28;;;25.42;36.11
32642;BME280;19323;56.072;9.698;2023-03-02T06:33:03;102070.66;;;25.43;36.38
32642;BME280;19323;56.072;9.698;2023-03-02T06:35:28;102066.28;;;25.42;36.24
32642;BME280;19323;56.072;9.698;2023-03-02T06:37:53;102066.28;;;25.42;36.14
32642;BME280;19323;56.072;9.698;2023-03-02T06:40:19;102071.63;;;25.42;36.05
32642;BME280;19323;56.072;9.698;2023-03-02T06:42:45;102073.47;;;25.41;36.05
32642;BME280;19323;56.072;9.698;2023-03-02T06:45:10;102085.91;;;25.42;36.20
32642;BME280;19323;56.072;9.698;2023-03-02T06:47:36;102066.38;;;25.40;36.16
32642;BME280;19323;56.072;9.698;2023-03-02T06:50:01;102079.81;;;25.40;36.26
32642;BME280;19323;56.072;9.698;2023-03-02T06:52:27;102084.31;;;25.40;36.41
32642;BME280;19323;56.072;9.698;2023-03-02T06:54:52;102084.31;;;25.40;36.33
32642;BME280;19323;56.072;9.698;2023-03-02T06:57:17;102082.47;;;25.40;36.30
32642;BME280;19323;56.072;9.698;2023-03-02T06:59:42;102084.22;;;25.41;36.23
32642;BME280;19323;56.072;9.698;2023-03-02T07:02:08;102086.03;;;25.41;36.25
32642;BME280;19323;56.072;9.698;2023-03-02T07:04:34;102083.34;;;25.41;36.28
32642;BME280;19323;56.072;9.698;2023-03-02T07:06:59;102089.56;;;25.41;36.28
32642;BME280;19323;56.072;9.698;2023-03-02T07:09:24;102085.06;;;25.42;36.14
32642;BME280;19323;56.072;9.698;2023-03-02T07:11:49;102094.94;;;25.41;36.20
32642;BME280;19323;56.072;9.698;2023-03-02T07:14:14;102085.06;;;25.42;36.11
32642;BME280;19323;56.072;9.698;2023-03-02T07:16:39;102084.22;;;25.41;36.26
32642;BME280;19323;56.072;9.698;2023-03-02T07:19:05;102077.00;;;25.42;36.20
32642;BME280;19323;56.072;9.698;2023-03-02T07:21:30;102085.06;;;25.42;36.39
32642;BME280;19323;56.072;9.698;2023-03-02T07:23:55;102074.31;;;25.42;35.96
32642;BME280;19323;56.072;9.698;2023-03-02T07:26:20;102071.63;;;25.42;36.23
32642;BME280;19323;56.072;9.698;2023-03-02T07:28:45;102073.47;;;25.41;35.92
32642;BME280;19323;56.072;9.698;2023-03-02T07:31:11;102066.28;;;25.42;36.01
32642;BME280;19323;56.072;9.698;2023-03-02T07:33:37;102065.44;;;25.41;36.01
32642;BME280;19323;56.072;9.698;2023-03-02T07:36:02;102064.59;;;25.41;36.17
32642;BME280;19323;56.072;9.698;2023-03-02T07:38:28;102064.59;;;25.41;36.09
32642;BME280;19323;56.072;9.698;2023-03-02T07:40:53;102062.88;;;25.40;36.05
32642;BME280;19323;56.072;9.698;2023-03-02T07:43:18;102067.38;;;25.39;36.05
32642;BME280;19323;56.072;9.698;2023-03-02T07:45:43;102065.66;;;25.38;36.08
32642;BME280;19323;56.072;9.698;2023-03-02T07:48:08;102064.81;;;25.38;35.93
32642;BME280;19323;56.072;9.698;2023-03-02T07:50:33;102061.19;;;25.39;35.81
32642;BME280;19323;56.072;9.698;2023-03-02T07:52:59;102069.22;;;25.39;36.18
32642;BME280;19323;56.072;9.698;2023-03-02T07:55:24;102054.09;;;25.38;35.92
32642;BME280;19323;56.072;9.698;2023-03-02T07:57:49;102061.19;;;25.39;35.91
32642;BME280;19323;56.072;9.698;2023-03-02T08:00:15;102054.09;;;25.38;35.91
32642;BME280;19323;56.072;9.698;2023-03-02T08:02:40;102058.50;;;25.39;35.86
32642;BME280;19323;56.072;9.698;2023-03-02T08:05:06;102056.78;;;25.38;35.74
32642;BME280;19323;56.072;9.698;2023-03-02T08:07:31;102050.56;;;25.37;35.70
32642;BME280;19323;56.072;9.698;2023-03-02T08:09:56;102052.41;;;25.37;35.68
32642;BME280;19323;56.072;9.698;2023-03-02T08:12:22;102047.88;;;25.37;35.92
32642;BME280;19323;56.072;9.698;2023-03-02T08:14:47;102049.72;;;25.37;35.67
32642;BME280;19323;56.072;9.698;2023-03-02T08:17:13;102048.84;;;25.36;35.50
32642;BME280;19323;56.072;9.698;2023-03-02T08:19:38;102046.31;;;25.35;35.93
32642;BME280;19323;56.072;9.698;2023-03-02T08:22:03;102048.00;;;25.36;35.98
32642;BME280;19323;56.072;9.698;2023-03-02T08:24:28;102052.53;;;25.35;35.94
32642;BME280;19323;56.072;9.698;2023-03-02T08:26:53;102050.78;;;25.34;35.86
32642;BME280;19323;56.072;9.698;2023-03-02T08:29:19;102047.16;;;25.35;35.88
32642;BME280;19323;56.072;9.698;2023-03-02T08:31:44;102051.69;;;25.35;35.97
32642;BME280;19323;56.072;9.698;2023-03-02T08:34:10;102035.59;;;25.35;35.85
32642;BME280;19323;56.072;9.698;2023-03-02T08:36:35;102032.03;;;25.34;35.81
32642;BME280;19323;56.072;9.698;2023-03-02T08:39:00;102038.28;;;25.35;35.95
32642;BME280;19323;56.072;9.698;2023-03-02T08:41:25;102037.38;;;25.34;36.13
32642;BME280;19323;56.072;9.698;2023-03-02T08:43:51;102034.84;;;25.33;35.72
32642;BME280;19323;56.072;9.698;2023-03-02T08:46:19;102037.53;;;25.33;35.78
32642;BME280;19323;56.072;9.698;2023-03-02T08:48:45;102034.97;;;25.31;35.86
32642;BME280;19323;56.072;9.698;2023-03-02T08:51:14;102037.78;;;25.29;35.94
32642;BME280;19323;56.072;9.698;2023-03-02T08:53:41;101999.44;;;25.06;35.78
32642;BME280;19323;56.072;9.698;2023-03-02T08:56:40;102038.75;;;25.28;35.99
32642;BME280;19323;56.072;9.698;2023-03-02T08:58:59;102033.41;;;25.28;35.97
32642;BME280;19323;56.072;9.698;2023-03-02T09:01:26;102037.78;;;25.29;35.89
32642;BME280;19323;56.072;9.698;2023-03-02T09:03:52;102045.81;;;25.29;35.88
32642;BME280;19323;56.072;9.698;2023-03-02T09:06:18;102036.94;;;25.29;36.04
32642;BME280;19323;56.072;9.698;2023-03-02T09:08:43;102040.44;;;25.29;35.54
32642;BME280;19323;56.072;9.698;2023-03-02T09:11:09;102047.66;;;25.29;36.02
32642;BME280;19323;56.072;9.698;2023-03-02T09:13:34;102042.41;;;25.27;35.79
32642;BME280;19323;56.072;9.698;2023-03-02T09:16:00;102041.44;;;25.28;35.90
32642;BME280;19323;56.072;9.698;2023-03-02T09:18:26;102037.03;;;25.27;35.86
32642;BME280;19323;56.072;9.698;2023-03-02T09:20:52;102036.09;;;25.28;36.05
32642;BME280;19323;56.072;9.698;2023-03-02T09:23:18;102037.78;;;25.29;35.72
32642;BME280;19323;56.072;9.698;2023-03-02T09:25:45;102034.13;;;25.31;35.75
32642;BME280;19323;56.072;9.698;2023-03-02T09:28:12;102032.28;;;25.31;35.93
32642;BME280;19323;56.072;9.698;2023-03-02T09:30:37;102031.31;;;25.32;35.84
32642;BME280;19323;56.072;9.698;2023-03-02T09:33:03;102037.53;;;25.33;35.75
32642;BME280;19323;56.072;9.698;2023-03-02T09:35:28;102031.31;;;25.32;35.93
32642;BME280;19323;56.072;9.698;2023-03-02T09:37:53;102030.22;;;25.35;35.96
32642;BME280;19323;56.072;9.698;2023-03-02T09:40:19;102033.75;;;25.35;35.96
32642;BME280;19323;56.072;9.698;2023-03-02T09:50:35;102023.75;;;25.37;35.66
32642;BME280;19323;56.072;9.698;2023-03-02T09:55:35;102022.91;;;25.37;35.89
32642;BME280;19323;56.072;9.698;2023-03-02T09:58:03;102024.59;;;25.38;35.59
32642;BME280;19323;56.072;9.698;2023-03-02T10:00:30;102013.84;;;25.38;35.71
32642;BME280;19323;56.072;9.698;2023-03-02T10:02:57;102019.94;;;25.40;35.83
32642;BME280;19323;56.072;9.698;2023-03-02T10:05:34;102025.19;;;25.41;35.75
32642;BME280;19323;56.072;9.698;2023-03-02T10:08:02;102014.47;;;25.41;35.89
32642;BME280;19323;56.072;9.698;2023-03-02T10:10:39;102015.31;;;25.42;35.70
32642;BME280;19323;56.072;9.698;2023-03-02T10:18:27;102012.38;;;25.45;35.81
32642;BME280;19323;56.072;9.698;2023-03-02T10:20:55;102011.41;;;25.46;35.64
32642;BME280;19323;56.072;9.698;2023-03-02T10:23:31;102014.94;;;25.46;35.60
32642;BME280;19323;56.072;9.698;2023-03-02T10:26:03;102015.66;;;25.48;35.63
32642;BME280;19323;56.072;9.698;2023-03-02T10:28:34;102020.75;;;25.52;35.58
32642;BME280;19323;56.072;9.698;2023-03-02T10:31:09;102019.78;;;25.53;35.65
32642;BME280;19323;56.072;9.698;2023-03-02T10:33:35;102014.31;;;25.54;35.45
32642;BME280;19323;56.072;9.698;2023-03-02T10:36:01;102012.34;;;25.56;35.40
32642;BME280;19323;56.072;9.698;2023-03-02T10:38:28;102008.66;;;25.57;35.35
32642;BME280;19323;56.072;9.698;2023-03-02T10:40:55;102007.53;;;25.60;35.38
32642;BME280;19323;56.072;9.698;2023-03-02T10:43:41;102004.88;;;25.60;35.24
32642;BME280;19323;56.072;9.698;2023-03-02T10:46:09;102012.78;;;25.61;35.39
32642;BME280;19323;56.072;9.698;2023-03-02T10:51:19;102002.78;;;25.63;35.30
32642;BME280;19323;56.072;9.698;2023-03-02T10:53:45;101998.25;;;25.64;35.18
32642;BME280;19323;56.072;9.698;2023-03-02T10:56:13;101998.13;;;25.65;35.15
32642;BME280;19323;56.072;9.698;2023-03-02T10:58:43;101992.63;;;25.67;35.05
32642;BME280;19323;56.072;9.698;2023-03-02T11:01:15;101992.50;;;25.68;35.11
32642;BME280;19323;56.072;9.698;2023-03-02T11:03:42;101993.22;;;25.70;35.08
32642;BME280;19323;56.072;9.698;2023-03-02T11:06:17;101983.34;;;25.71;35.29
32642;BME280;19323;56.072;9.698;2023-03-02T11:08:43;101986.91;;;25.72;35.11
32642;BME280;19323;56.072;9.698;2023-03-02T11:11:20;101980.53;;;25.73;35.06
32642;BME280;19323;56.072;9.698;2023-03-02T11:13:45;101974.19;;;25.74;34.96
32642;BME280;19323;56.072;9.698;2023-03-02T11:21:44;101971.97;;;25.79;34.80
32642;BME280;19323;56.072;9.698;2023-03-02T11:24:14;101973.66;;;25.80;34.89
32642;BME280;19323;56.072;9.698;2023-03-02T11:27:01;101974.38;;;25.82;34.86
32642;BME280;19323;56.072;9.698;2023-03-02T11:29:31;101968.75;;;25.85;34.91
32642;BME280;19323;56.072;9.698;2023-03-02T11:34:42;101964.88;;;25.89;34.86
32642;BME280;19323;56.072;9.698;2023-03-02T11:39:59;101958.38;;;25.92;34.81
32642;BME280;19323;56.072;9.698;2023-03-02T11:42:27;101955.53;;;25.93;34.72
32642;BME280;19323;56.072;9.698;2023-03-02T11:44:54;101967.16;;;25.94;34.64
32642;BME280;19323;56.072;9.698;2023-03-02T11:47:20;101960.78;;;25.95;34.65
32642;BME280;19323;56.072;9.698;2023-03-02T11:49:52;101961.63;;;25.95;34.65
32642;BME280;19323;56.072;9.698;2023-03-02T11:52:19;101962.34;;;25.97;34.70
32642;BME280;19323;56.072;9.698;2023-03-02T11:54:47;101949.81;;;25.98;34.61
32642;BME280;19323;56.072;9.698;2023-03-02T11:57:19;101954.03;;;26.00;34.40
32642;BME280;19323;56.072;9.698;2023-03-02T11:59:45;101951.09;;;26.03;34.22
32642;BME280;19323;56.072;9.698;2023-03-02T12:02:10;101950.13;;;26.04;34.49
32642;BME280;19323;56.072;9.698;2023-03-02T12:04:37;101949.13;;;26.05;34.57
32642;BME280;19323;56.072;9.698;2023-03-02T12:07:14;101931.16;;;26.06;34.31
32642;BME280;19323;56.072;9.698;2023-03-02T12:09:40;101933.84;;;26.06;34.33
32642;BME280;19323;56.072;9.698;2023-03-02T12:14:37;101928.34;;;26.07;34.51
32642;BME280;19323;56.072;9.698;2023-03-02T12:17:48;101922.00;;;26.08;34.18
32642;BME280;19323;56.072;9.698;2023-03-02T12:19:48;101928.94;;;26.11;34.50
32642;BME280;19323;56.072;9.698;2023-03-02T12:22:25;101926.09;;;26.13;34.18
32642;BME280;19323;56.072;9.698;2023-03-02T12:24:57;101922.44;;;26.14;34.21
32642;BME280;19323;56.072;9.698;2023-03-02T12:27:24;101920.63;;;26.14;34.44
32642;BME280;19323;56.072;9.698;2023-03-02T12:29:54;101917.63;;;26.17;34.41
32642;BME280;19323;56.072;9.698;2023-03-02T12:34:50;101912.16;;;26.19;34.09
32642;BME280;19323;56.072;9.698;2023-03-02T12:37:20;101901.41;;;26.19;34.37
32642;BME280;19323;56.072;9.698;2023-03-02T12:47:44;101885.56;;;26.16;34.47
32642;BME280;19323;56.072;9.698;2023-03-02T12:50:18;101884.75;;;26.15;34.05
32642;BME280;19323;56.072;9.698;2023-03-02T12:52:54;101876.81;;;26.14;34.42
32642;BME280;19323;56.072;9.698;2023-03-02T12:55:20;101869.72;;;26.13;34.40
32642;BME280;19323;56.072;9.698;2023-03-02T12:57:49;101869.47;;;26.16;34.19
32642;BME280;19323;56.072;9.698;2023-03-02T13:00:15;101866.63;;;26.17;34.51
32642;BME280;19323;56.072;9.698;2023-03-02T13:02:44;101858.44;;;26.19;34.22
32642;BME280;19323;56.072;9.698;2023-03-02T13:05:15;101856.47;;;26.21;34.49
32642;BME280;19323;56.072;9.698;2023-03-02T13:07:42;101853.66;;;26.22;34.18
32642;BME280;19323;56.072;9.698;2023-03-02T13:12:45;101852.25;;;26.28;34.43
32642;BME280;19323;56.072;9.698;2023-03-02T13:15:12;101847.59;;;26.30;34.50
32642;BME280;19323;56.072;9.698;2023-03-02T13:17:39;101858.19;;;26.31;34.62
32642;BME280;19323;56.072;9.698;2023-03-02T13:20:04;101850.00;;;26.33;34.25
32642;BME280;19323;56.072;9.698;2023-03-02T13:22:29;101842.66;;;26.35;34.61
32642;BME280;19323;56.072;9.698;2023-03-02T13:25:00;101847.75;;;26.38;34.16
32642;BME280;19323;56.072;9.698;2023-03-02T13:27:26;101847.75;;;26.38;34.43
32642;BME280;19323;56.072;9.698;2023-03-02T13:29:52;101843.09;;;26.40;34.05
32642;BME280;19323;56.072;9.698;2023-03-02T13:34:48;101842.66;;;26.45;33.74
32642;BME280;19323;56.072;9.698;2023-03-02T13:37:18;101845.22;;;26.46;33.65
32642;BME280;19323;56.072;9.698;2023-03-02T13:39:44;101854.00;;;26.48;33.62